createdAt,value
2017-11-19T00:00:08.923Z,67.80
2017-11-19T00:02:37.127Z,66.20
2017-11-19T00:05:05.296Z,69.20
2017-11-19T00:07:33.782Z,68.70
2017-11-19T00:10:01.973Z,68.10
2017-11-19T00:12:30.215Z,67.80
2017-11-19T00:14:58.368Z,68.30
2017-11-19T00:17:26.525Z,69.20
2017-11-19T00:19:54.716Z,67.70
2017-11-19T00:22:22.875Z,67.10
2017-11-19T00:24:51.072Z,66.70
2017-11-19T00:27:20.008Z,68.40
2017-11-19T00:29:48.148Z,70.10
2017-11-19T00:32:16.548Z,66.50
2017-11-19T00:34:44.704Z,68.60
2017-11-19T00:37:13.625Z,70.00
2017-11-19T00:39:41.787Z,69.20
2017-11-19T00:42:09.938Z,67.00
2017-11-19T00:44:40.075Z,67.00
2017-11-19T00:47:08.799Z,66.00
2017-11-19T00:49:36.999Z,66.90
2017-11-19T00:52:05.170Z,66.20
2017-11-19T00:54:34.167Z,68.40
2017-11-19T00:57:02.404Z,68.40
2017-11-19T00:59:30.578Z,68.40
2017-11-19T01:01:58.744Z,67.90
2017-11-19T01:04:26.935Z,66.80
2017-11-19T01:06:55.097Z,66.80
2017-11-19T01:09:23.240Z,65.80
2017-11-19T01:11:51.415Z,66.70
2017-11-19T01:14:19.561Z,66.90
2017-11-19T01:16:47.711Z,65.60
2017-11-19T01:19:16.816Z,66.60
2017-11-19T01:21:45.732Z,69.20
2017-11-19T01:24:13.899Z,69.20
2017-11-19T01:26:42.087Z,68.20
2017-11-19T01:29:10.222Z,68.50
2017-11-19T01:31:39.147Z,70.00
2017-11-19T01:34:07.437Z,70.20
2017-11-19T01:36:35.612Z,70.20
2017-11-19T01:39:03.764Z,70.40
2017-11-19T01:41:31.923Z,72.20
2017-11-19T01:44:00.943Z,69.40
2017-11-19T01:46:29.095Z,69.40
2017-11-19T01:48:58.013Z,72.40
2017-11-19T01:51:26.176Z,72.20
2017-11-19T01:53:55.486Z,71.40
2017-11-19T01:56:23.696Z,70.00
2017-11-19T01:58:51.862Z,73.00
2017-11-19T02:01:20.019Z,69.80
2017-11-19T02:03:48.185Z,71.50
2017-11-19T02:06:16.347Z,70.20
2017-11-19T02:08:44.501Z,71.30
2017-11-19T02:11:14.311Z,73.50
2017-11-19T02:13:43.326Z,73.40
2017-11-19T02:16:11.490Z,73.30
2017-11-19T02:18:39.652Z,70.90
2017-11-19T02:21:07.785Z,72.40
2017-11-19T02:23:36.011Z,76.30
2017-11-19T02:26:04.175Z,77.30
2017-11-19T02:28:33.084Z,72.70
2017-11-19T02:31:01.258Z,72.80
2017-11-19T02:33:30.332Z,78.50
2017-11-19T02:35:58.494Z,78.70
2017-11-19T02:38:26.656Z,79.10
2017-11-19T02:40:55.497Z,79.20
2017-11-19T02:43:29.889Z,79.80
2017-11-19T02:45:59.656Z,81.00
2017-11-19T02:48:27.813Z,81.10
2017-11-19T02:50:56.911Z,79.70
2017-11-19T02:53:25.143Z,82.00
2017-11-19T02:55:53.297Z,82.80
2017-11-19T02:58:21.460Z,81.70
2017-11-19T03:00:49.632Z,83.70
2017-11-19T03:03:17.912Z,82.00
2017-11-19T03:05:46.068Z,81.10
2017-11-19T03:08:14.227Z,82.20
2017-11-19T03:10:42.995Z,82.00
2017-11-19T03:13:12.234Z,81.70
2017-11-19T03:15:40.390Z,81.20
2017-11-19T03:18:08.533Z,82.80
2017-11-19T03:20:36.692Z,83.00
2017-11-19T03:23:05.705Z,82.10
2017-11-19T03:25:33.861Z,82.10
2017-11-19T03:28:02.784Z,83.60
2017-11-19T03:30:30.945Z,83.50
2017-11-19T03:32:59.206Z,81.10
2017-11-19T03:35:28.140Z,81.30
2017-11-19T03:37:56.286Z,81.30
2017-11-19T03:40:24.466Z,80.80
2017-11-19T03:42:55.855Z,80.90
2017-11-19T03:45:24.027Z,81.60
2017-11-19T03:47:52.171Z,81.60
2017-11-19T03:50:20.322Z,81.50
2017-11-19T03:52:49.326Z,80.80
2017-11-19T03:55:17.547Z,80.60
2017-11-19T03:57:46.287Z,80.00
2017-11-19T04:00:14.474Z,80.20
2017-11-19T04:02:46.106Z,80.70
2017-11-19T04:05:15.018Z,80.10
2017-11-19T04:07:43.208Z,80.10
2017-11-19T04:10:11.600Z,81.60
2017-11-19T04:12:39.838Z,82.20
2017-11-19T04:15:07.990Z,80.90
2017-11-19T04:17:36.152Z,81.70
2017-11-19T04:20:04.573Z,82.00
2017-11-19T04:22:32.727Z,83.20
2017-11-19T04:25:01.660Z,82.40
2017-11-19T04:27:29.804Z,82.40
2017-11-19T04:29:58.007Z,82.20
2017-11-19T04:32:26.166Z,81.60
2017-11-19T04:34:54.308Z,84.20
2017-11-19T04:37:22.476Z,83.00
2017-11-19T04:39:51.391Z,82.70
2017-11-19T04:42:19.539Z,82.00
2017-11-19T04:44:47.673Z,83.30
2017-11-19T04:47:16.608Z,83.20
2017-11-19T04:49:45.528Z,81.00
2017-11-19T04:52:13.695Z,81.00
2017-11-19T04:54:41.857Z,82.10
2017-11-19T04:57:10.788Z,82.30
2017-11-19T04:59:39.368Z,82.30
2017-11-19T05:02:07.518Z,84.00
2017-11-19T05:04:35.670Z,81.60
2017-11-19T05:07:04.589Z,82.60
2017-11-19T05:09:32.727Z,82.60
2017-11-19T05:12:00.886Z,82.30
2017-11-19T05:14:29.075Z,80.70
2017-11-19T05:16:57.238Z,81.50
2017-11-19T05:19:25.434Z,80.80
2017-11-19T05:21:54.788Z,82.10
2017-11-19T05:24:22.947Z,82.20
2017-11-19T05:26:51.161Z,82.90
2017-11-19T05:29:19.368Z,84.20
2017-11-19T05:31:49.062Z,83.60
2017-11-19T05:34:18.096Z,83.60
2017-11-19T05:36:46.259Z,84.90
2017-11-19T05:39:14.412Z,85.10
2017-11-19T05:41:42.569Z,84.40
2017-11-19T05:44:10.779Z,85.20
2017-11-19T05:46:38.940Z,86.20
2017-11-19T05:49:08.319Z,86.40
2017-11-19T05:51:36.476Z,86.40
2017-11-19T05:54:04.697Z,86.10
2017-11-19T05:56:33.602Z,87.00
2017-11-19T05:59:01.747Z,87.00
2017-11-19T06:01:30.672Z,87.00
2017-11-19T06:03:58.844Z,86.80
2017-11-19T06:06:27.021Z,87.00
2017-11-19T06:08:56.322Z,86.80
2017-11-19T06:11:24.465Z,86.70
2017-11-19T06:13:55.418Z,87.70
2017-11-19T06:16:23.669Z,87.70
2017-11-19T06:18:51.805Z,89.20
2017-11-19T06:21:19.963Z,88.50
2017-11-19T06:23:55.553Z,86.10
2017-11-19T06:26:23.710Z,86.80
2017-11-19T06:28:51.877Z,84.20
2017-11-19T06:31:20.018Z,84.00
2017-11-19T06:33:51.908Z,83.80
2017-11-19T06:36:20.060Z,83.30
2017-11-19T06:38:49.224Z,82.90
2017-11-19T06:41:17.376Z,83.70
2017-11-19T06:43:45.589Z,84.60
2017-11-19T06:46:13.744Z,82.40
2017-11-19T06:48:42.736Z,82.00
2017-11-19T06:51:11.661Z,83.30
2017-11-19T06:53:39.924Z,83.20
2017-11-19T06:56:08.112Z,81.30
2017-11-19T06:58:36.639Z,83.20
2017-11-19T07:01:04.817Z,82.00
2017-11-19T07:03:33.132Z,81.10
2017-11-19T07:06:03.030Z,81.00
2017-11-19T07:08:31.950Z,82.20
2017-11-19T07:11:00.120Z,82.10
2017-11-19T07:13:28.384Z,83.30
2017-11-19T07:15:56.530Z,84.40
2017-11-19T07:18:24.686Z,83.80
2017-11-19T07:20:52.825Z,83.80
2017-11-19T07:23:21.862Z,84.90
2017-11-19T07:25:50.029Z,82.10
2017-11-19T07:28:18.195Z,84.90
2017-11-19T07:30:47.150Z,85.50
2017-11-19T07:33:15.445Z,85.00
2017-11-19T07:35:43.601Z,83.50
2017-11-19T07:38:11.773Z,83.90
2017-11-19T07:40:40.419Z,82.80
2017-11-19T07:43:14.334Z,82.50
2017-11-19T07:45:42.534Z,83.90
2017-11-19T07:48:10.728Z,84.90
2017-11-19T07:50:38.875Z,85.20
2017-11-19T07:53:11.946Z,84.80
2017-11-19T07:55:40.099Z,84.70
2017-11-19T07:58:09.274Z,84.50
2017-11-19T08:00:37.418Z,87.20
2017-11-19T08:03:07.675Z,86.50
2017-11-19T08:05:35.834Z,86.00
2017-11-19T08:08:04.057Z,87.40
2017-11-19T08:10:32.191Z,86.80
2017-11-19T08:13:00.340Z,87.40
2017-11-19T08:15:28.483Z,86.90
2017-11-19T08:17:58.499Z,87.80
2017-11-19T08:20:27.435Z,84.10
2017-11-19T08:22:58.772Z,84.10
2017-11-19T08:25:26.969Z,84.20
2017-11-19T08:27:58.215Z,86.40
2017-11-19T08:30:26.430Z,81.90
2017-11-19T08:32:59.863Z,81.70
2017-11-19T08:35:28.156Z,83.50
2017-11-19T08:37:56.329Z,83.40
2017-11-19T08:40:24.491Z,84.30
2017-11-19T08:42:52.801Z,84.30
2017-11-19T08:45:21.019Z,80.90
2017-11-19T08:47:49.171Z,80.70
2017-11-19T08:50:17.881Z,80.30
2017-11-19T08:52:46.914Z,78.50
2017-11-19T08:55:16.718Z,78.50
2017-11-19T08:57:46.786Z,79.80
2017-11-19T09:00:14.990Z,79.80
2017-11-19T09:02:47.895Z,78.30
2017-11-19T09:05:16.093Z,75.90
2017-11-19T09:07:48.285Z,79.20
2017-11-19T09:10:17.702Z,80.80
2017-11-19T09:12:46.014Z,80.50
2017-11-19T09:15:14.163Z,82.70
2017-11-19T09:17:44.274Z,84.50
2017-11-19T09:20:12.430Z,84.50
2017-11-19T09:22:42.626Z,83.30
2017-11-19T09:25:11.338Z,83.60
2017-11-19T09:27:39.500Z,83.60
2017-11-19T09:30:07.650Z,85.00
2017-11-19T09:32:36.816Z,85.30
2017-11-19T09:35:05.005Z,87.10
2017-11-19T09:37:33.182Z,85.00
2017-11-19T09:40:01.327Z,84.40
2017-11-19T09:42:31.845Z,81.40
2017-11-19T09:45:00.002Z,81.30
2017-11-19T09:47:28.144Z,79.60
2017-11-19T09:49:56.300Z,82.30
2017-11-19T09:52:24.485Z,78.70
2017-11-19T09:54:52.643Z,78.90
2017-11-19T09:57:20.787Z,74.60
2017-11-19T09:59:49.218Z,75.50
2017-11-19T10:02:18.079Z,75.80
2017-11-19T10:04:46.250Z,74.40
2017-11-19T10:07:15.172Z,76.30
2017-11-19T10:09:43.959Z,76.20
2017-11-19T10:12:12.133Z,70.00
2017-11-19T10:14:40.288Z,74.30
2017-11-19T10:17:08.434Z,69.30
2017-11-19T10:19:36.589Z,67.00
2017-11-19T10:22:05.679Z,70.50
2017-11-19T10:24:33.827Z,67.30
2017-11-19T10:27:01.983Z,65.50
2017-11-19T10:29:30.150Z,67.60
2017-11-19T10:31:58.331Z,70.60
2017-11-19T10:34:26.498Z,71.40
2017-11-19T10:36:54.660Z,70.30
2017-11-19T10:39:23.588Z,74.60
2017-11-19T10:41:51.764Z,74.50
2017-11-19T10:44:20.022Z,76.20
2017-11-19T10:46:48.172Z,74.50
2017-11-19T10:49:16.321Z,75.70
2017-11-19T10:51:44.492Z,75.90
2017-11-19T10:54:13.749Z,78.00
2017-11-19T10:56:41.920Z,80.60
2017-11-19T10:59:10.860Z,79.90
2017-11-19T11:01:39.018Z,80.70
2017-11-19T11:04:07.254Z,75.40
2017-11-19T11:06:35.412Z,69.20
2017-11-19T11:09:04.358Z,70.30
2017-11-19T11:11:32.578Z,70.20
2017-11-19T11:14:01.596Z,65.80
2017-11-19T11:16:31.494Z,65.90
2017-11-19T11:18:59.664Z,62.90
2017-11-19T11:21:29.266Z,58.50
2017-11-19T11:23:57.612Z,58.60
2017-11-19T11:26:25.780Z,63.50
2017-11-19T11:28:53.942Z,62.20
2017-11-19T11:31:22.957Z,57.70
2017-11-19T11:33:56.320Z,54.40
2017-11-19T11:36:25.340Z,56.40
2017-11-19T11:38:53.479Z,51.50
2017-11-19T11:41:21.643Z,53.60
2017-11-19T11:43:49.917Z,53.50
2017-11-19T11:46:18.078Z,50.10
2017-11-19T11:48:47.014Z,49.70
2017-11-19T11:51:15.931Z,51.60
2017-11-19T11:53:44.099Z,51.20
2017-11-19T11:56:12.247Z,46.80
2017-11-19T11:58:40.389Z,49.70
2017-11-19T12:01:08.549Z,47.90
2017-11-19T12:03:37.782Z,49.20
2017-11-19T12:06:05.996Z,52.70
2017-11-19T12:08:34.133Z,48.30
2017-11-19T12:11:02.344Z,45.60
2017-11-19T12:13:30.766Z,50.10
2017-11-19T12:15:59.690Z,49.50
2017-11-19T12:18:27.845Z,50.10
2017-11-19T12:20:55.989Z,47.90
2017-11-19T12:23:25.031Z,46.30
2017-11-19T12:25:53.185Z,46.10
2017-11-19T12:28:22.254Z,46.30
2017-11-19T12:30:52.026Z,49.40
2017-11-19T12:33:20.184Z,49.30
2017-11-19T12:35:48.333Z,54.00
2017-11-19T12:38:17.293Z,49.00
2017-11-19T12:40:52.241Z,49.00
2017-11-19T12:43:21.252Z,48.80
2017-11-19T12:45:49.454Z,48.70
2017-11-19T12:48:17.597Z,51.00
2017-11-19T12:50:45.766Z,46.80
2017-11-19T12:53:14.757Z,48.20
2017-11-19T12:55:42.917Z,48.10
2017-11-19T12:58:11.842Z,49.60
2017-11-19T13:00:39.998Z,49.50
2017-11-19T13:03:08.355Z,47.40
2017-11-19T13:05:36.514Z,48.70
2017-11-19T13:08:04.683Z,46.30
2017-11-19T13:10:32.893Z,45.20
2017-11-19T13:13:01.828Z,45.50
2017-11-19T13:15:30.758Z,46.30
2017-11-19T13:17:58.914Z,46.20
2017-11-19T13:20:27.080Z,44.80
2017-11-19T13:22:55.905Z,46.00
2017-11-19T13:25:24.158Z,47.10
2017-11-19T13:27:52.339Z,47.10
2017-11-19T13:30:20.492Z,46.60
2017-11-19T13:32:49.672Z,47.90
2017-11-19T13:35:17.826Z,47.30
2017-11-19T13:37:46.391Z,47.10
2017-11-19T13:40:15.316Z,46.60
2017-11-19T13:42:43.572Z,46.70
2017-11-19T13:45:11.733Z,46.80
2017-11-19T13:47:40.906Z,47.20
2017-11-19T13:50:09.940Z,47.30
2017-11-19T13:52:38.946Z,47.00
2017-11-19T13:55:07.113Z,47.10
2017-11-19T13:57:35.317Z,48.10
2017-11-19T14:00:03.480Z,47.80
2017-11-19T14:02:31.623Z,44.50
2017-11-19T14:04:59.847Z,47.00
2017-11-19T14:07:28.019Z,44.90
2017-11-19T14:09:56.204Z,47.70
2017-11-19T14:12:24.349Z,44.40
2017-11-19T14:14:52.516Z,43.60
2017-11-19T14:17:21.155Z,41.70
2017-11-19T14:19:49.324Z,42.20
2017-11-19T14:22:17.560Z,42.30
2017-11-19T14:24:45.753Z,42.60
2017-11-19T14:27:13.947Z,43.00
2017-11-19T14:29:42.124Z,42.80
2017-11-19T14:32:10.296Z,43.50
2017-11-19T14:34:38.775Z,44.90
2017-11-19T14:37:06.958Z,45.00
2017-11-19T14:39:35.163Z,43.20
2017-11-19T14:42:03.408Z,45.80
2017-11-19T14:44:35.023Z,44.70
2017-11-19T14:47:03.283Z,45.10
2017-11-19T14:49:31.422Z,44.80
2017-11-19T14:52:00.469Z,45.20
2017-11-19T14:54:28.731Z,45.10
2017-11-19T14:56:56.989Z,44.70
2017-11-19T14:59:26.004Z,45.70
2017-11-19T15:01:54.949Z,47.60
2017-11-19T15:04:24.089Z,47.60
2017-11-19T15:06:52.340Z,46.40
2017-11-19T15:09:21.300Z,45.60
2017-11-19T15:11:49.509Z,46.40
2017-11-19T15:14:17.776Z,47.50
2017-11-19T15:16:46.707Z,47.00
2017-11-19T15:19:14.847Z,47.10
2017-11-19T15:21:43.766Z,47.30
2017-11-19T15:24:11.933Z,47.30
2017-11-19T15:26:40.996Z,47.30
2017-11-19T15:29:09.139Z,48.40
2017-11-19T15:31:37.309Z,49.00
2017-11-19T15:34:05.453Z,48.20
2017-11-19T15:36:33.593Z,48.10
2017-11-19T15:39:02.531Z,49.20
2017-11-19T15:41:30.660Z,49.20
2017-11-19T15:43:59.588Z,51.00
2017-11-19T15:46:27.743Z,51.00
2017-11-19T15:48:55.890Z,51.00
2017-11-19T15:51:24.054Z,50.60
2017-11-19T15:53:52.281Z,50.60
2017-11-19T15:56:20.419Z,50.90
2017-11-19T15:58:49.344Z,50.90
2017-11-19T16:01:17.498Z,50.90
2017-11-19T16:03:48.437Z,52.00
2017-11-19T16:06:17.372Z,52.60
2017-11-19T16:08:45.525Z,52.60
2017-11-19T16:11:13.667Z,53.00
2017-11-19T16:13:41.955Z,54.40
2017-11-19T16:16:10.865Z,53.50
2017-11-19T16:18:39.023Z,53.50
2017-11-19T16:21:07.203Z,54.60
2017-11-19T16:23:35.492Z,56.60
2017-11-19T16:26:03.650Z,56.80
2017-11-19T16:28:31.822Z,58.10
2017-11-19T16:31:00.052Z,57.30
2017-11-19T16:33:28.227Z,59.70
2017-11-19T16:35:56.871Z,59.70
2017-11-19T16:38:25.261Z,59.90
2017-11-19T16:40:53.490Z,61.80
2017-11-19T16:43:25.324Z,63.70
2017-11-19T16:45:53.490Z,63.70
2017-11-19T16:48:21.669Z,62.30
2017-11-19T16:50:49.922Z,62.50
2017-11-19T16:53:18.080Z,64.20
2017-11-19T16:55:48.508Z,64.20
2017-11-19T16:58:16.952Z,64.10
2017-11-19T17:00:45.118Z,64.80
2017-11-19T17:03:16.969Z,66.20
2017-11-19T17:05:45.131Z,66.80
2017-11-19T17:08:13.898Z,66.70
2017-11-19T17:10:42.054Z,66.40
2017-11-19T17:13:12.496Z,66.40
2017-11-19T17:15:40.686Z,66.30
2017-11-19T17:18:11.640Z,67.70
2017-11-19T17:20:40.042Z,67.00
2017-11-19T17:23:08.266Z,67.90
2017-11-19T17:25:36.418Z,67.90
2017-11-19T17:28:04.789Z,69.40
2017-11-19T17:30:35.492Z,69.70
2017-11-19T17:33:04.139Z,70.00
2017-11-19T17:35:32.307Z,68.90
2017-11-19T17:38:00.932Z,68.10
2017-11-19T17:40:29.393Z,66.70
2017-11-19T17:42:57.544Z,67.00
2017-11-19T17:45:25.695Z,66.00
2017-11-19T17:47:53.869Z,64.40
2017-11-19T17:50:24.091Z,66.00
2017-11-19T17:52:53.353Z,66.00
2017-11-19T17:55:21.503Z,65.40
2017-11-19T17:57:49.696Z,66.50
2017-11-19T18:00:17.853Z,65.00
2017-11-19T18:02:46.024Z,63.70
2017-11-19T18:05:14.220Z,64.70
2017-11-19T18:07:42.365Z,64.40
2017-11-19T18:10:10.542Z,63.50
2017-11-19T18:12:39.711Z,63.40
2017-11-19T18:15:08.371Z,64.40
2017-11-19T18:17:38.120Z,64.70
2017-11-19T18:20:08.116Z,65.80
2017-11-19T18:22:37.104Z,66.60
2017-11-19T18:25:06.054Z,66.50
2017-11-19T18:27:34.226Z,66.40
2017-11-19T18:30:02.369Z,66.60
2017-11-19T18:32:32.205Z,67.20
2017-11-19T18:35:00.396Z,67.50
2017-11-19T18:37:28.725Z,67.80
2017-11-19T18:39:56.880Z,68.00
2017-11-19T18:42:25.018Z,68.40
2017-11-19T18:44:53.168Z,68.00
2017-11-19T18:47:22.991Z,68.70
2017-11-19T18:49:51.149Z,68.10
2017-11-19T18:52:20.019Z,68.30
2017-11-19T18:54:48.149Z,68.80
2017-11-19T18:57:16.315Z,68.50
2017-11-19T18:59:44.480Z,68.50
2017-11-19T19:02:12.654Z,67.70
2017-11-19T19:04:56.645Z,70.20
2017-11-19T19:07:24.787Z,68.00
2017-11-19T19:09:52.956Z,69.00
2017-11-19T19:12:21.146Z,67.60
2017-11-19T19:14:49.311Z,65.50
2017-11-19T19:17:17.612Z,65.40
2017-11-19T19:19:45.762Z,65.80
2017-11-19T19:22:13.909Z,65.30
2017-11-19T19:24:42.849Z,64.40
2017-11-19T19:27:11.770Z,66.10
2017-11-19T19:29:39.941Z,66.00
2017-11-19T19:32:09.185Z,65.50
2017-11-19T19:34:37.349Z,64.50
2017-11-19T19:37:06.197Z,65.10
2017-11-19T19:39:34.585Z,64.30
2017-11-19T19:42:02.750Z,65.80
2017-11-19T19:44:31.735Z,65.20
2017-11-19T19:47:00.680Z,65.10
2017-11-19T19:49:28.831Z,64.80
2017-11-19T19:51:57.918Z,65.90
2017-11-19T19:54:26.087Z,65.90
2017-11-19T19:56:54.305Z,64.50
2017-11-19T19:59:25.665Z,65.70
2017-11-19T20:01:54.528Z,64.90
2017-11-19T20:04:26.632Z,64.30
2017-11-19T20:06:54.852Z,65.90
2017-11-19T20:09:23.026Z,65.20
2017-11-19T20:11:51.210Z,62.80
2017-11-19T20:21:03.485Z,63.30
2017-11-19T20:23:32.005Z,64.10
2017-11-19T20:26:00.935Z,64.30
2017-11-19T20:28:29.356Z,63.90
2017-11-19T20:30:59.842Z,64.60
2017-11-19T20:33:30.137Z,64.60
2017-11-19T20:35:58.312Z,64.40
2017-11-19T20:38:26.466Z,63.30
2017-11-19T20:40:55.454Z,62.80
2017-11-19T20:43:30.187Z,62.80
2017-11-19T20:45:59.203Z,62.50
2017-11-19T20:48:27.475Z,63.70
2017-11-19T20:50:55.621Z,64.40
2017-11-19T20:53:23.890Z,63.00
2017-11-19T20:55:53.025Z,62.70
2017-11-19T20:58:21.200Z,61.40
2017-11-19T21:00:49.328Z,61.90
2017-11-19T21:03:17.533Z,62.20
2017-11-19T21:05:46.868Z,62.50
2017-11-19T21:08:15.013Z,62.70
2017-11-19T21:10:43.938Z,63.50
2017-11-19T21:13:13.101Z,63.40
2017-11-19T21:15:41.250Z,62.10
2017-11-19T21:18:09.803Z,62.20
2017-11-19T21:20:38.784Z,61.70
2017-11-19T21:23:07.035Z,62.70
2017-11-19T21:25:35.224Z,61.00
2017-11-19T21:28:04.898Z,62.10
2017-11-19T21:30:33.807Z,63.00
2017-11-19T21:33:01.973Z,62.10
2017-11-19T21:35:30.108Z,61.40
2017-11-19T21:37:58.931Z,61.20
2017-11-19T21:40:28.013Z,61.60
2017-11-19T21:42:56.371Z,61.00
2017-11-19T21:45:24.534Z,61.00
2017-11-19T21:47:52.699Z,61.00
2017-11-19T21:50:20.855Z,60.90
2017-11-19T21:52:49.047Z,61.10
2017-11-19T21:55:17.228Z,61.00
2017-11-19T21:57:46.385Z,61.40
2017-11-19T22:00:15.699Z,60.80
2017-11-19T22:02:43.964Z,60.40
2017-11-19T22:05:12.754Z,59.60
2017-11-19T22:07:41.135Z,59.80
2017-11-19T22:10:09.588Z,61.50
2017-11-19T22:12:40.947Z,60.70
2017-11-19T22:15:09.861Z,59.80
2017-11-19T22:17:38.062Z,59.80
2017-11-19T22:20:06.210Z,59.50
2017-11-19T22:22:34.501Z,59.20
2017-11-19T22:25:02.657Z,59.50
2017-11-19T22:27:30.807Z,59.10
2017-11-19T22:29:59.723Z,59.70
2017-11-19T22:32:28.975Z,59.80
2017-11-19T22:34:57.182Z,59.70
2017-11-19T22:37:26.094Z,59.50
2017-11-19T22:39:54.942Z,59.40
2017-11-19T22:42:23.100Z,60.60
2017-11-19T22:44:51.252Z,59.90
2017-11-19T22:47:19.661Z,60.40
2017-11-19T22:49:48.736Z,60.40
2017-11-19T22:52:16.967Z,59.60
2017-11-19T22:54:45.873Z,60.10
2017-11-19T22:57:14.020Z,60.00
2017-11-19T22:59:42.182Z,60.30
2017-11-19T23:02:11.119Z,62.60
2017-11-19T23:04:39.271Z,62.40
2017-11-19T23:07:07.412Z,59.70
2017-11-19T23:09:35.560Z,59.50
2017-11-19T23:12:03.936Z,59.60
2017-11-19T23:14:32.182Z,61.80
2017-11-19T23:17:00.328Z,59.60
2017-11-19T23:19:30.073Z,58.50
2017-11-19T23:21:58.239Z,59.20
2017-11-19T23:24:26.535Z,57.50
2017-11-19T23:26:54.690Z,57.80
2017-11-19T23:29:22.838Z,57.50
2017-11-19T23:31:51.991Z,58.60
2017-11-19T23:34:20.224Z,59.20
2017-11-19T23:36:49.134Z,59.70
2017-11-19T23:39:17.309Z,58.80
2017-11-19T23:41:45.468Z,59.70
2017-11-19T23:44:13.748Z,60.20
2017-11-19T23:46:41.892Z,59.50
2017-11-19T23:49:10.054Z,59.00
2017-11-19T23:51:38.275Z,60.70
2017-11-19T23:54:14.700Z,59.40
2017-11-19T23:56:43.503Z,59.10
2017-11-19T23:59:11.666Z,58.80
